Seaside, OR

7:52 PM PDT on September 22, 2014 (GMT -0700)
Ocean Vista Dr | Change Station
CLOSE
Current Station
Personal Weather Station
Location: Seaside, OR
Elevation: 16 ft
Nearby Weather Stations
Active Advisory: Special Statement

Elev 16 ft 45.98 °N, 123.93 °W | Updated 3 seconds ago

Overcast
Overcast
62.6 °F
Feels Like 62.6 °F
N
3.3
Wind Variable Wind from SSW
Gusts 7.0 mph

Today
High -- | Low -- °F
--% Chance of Precip.
Yesterday
High -- | Low -- °F
Precip. -- in
7:02 AM 7:12 PM
Waning Crescent, 1% visible
Pressure 29.94 in
Visibility 10.0 miles
Clouds Mostly Cloudy 3500 ft
Mostly Cloudy 8500 ft
Dew Point 58 °F
Humidity 84%
Rainfall 0.01 in
Snow Depth 1 in , 0 in , 0 in
UV 0.0 out of 12
Pollen 1.10 out of 12
Air Quality Not available.
Flu Activity Not available.
METAR KAST 230155Z AUTO 23006KT 10SM BKN035 BKN085 16/13 A2993 RMK AO2 SLP136 T01610133

More Conditions Fewer Conditions

Pressure 29.94 in
Visibility 10.0 miles
Clouds Mostly Cloudy 3500 ft
Mostly Cloudy 8500 ft
Dew Point 58 °F
Humidity 84%
Rainfall 0.01 in
Snow Depth 1 in , 0 in , 0 in
UV 0.0 out of 12
Pollen 1.10 out of 12
Air Quality Not available.
Flu Activity Not available.
METAR KAST 230155Z AUTO 23006KT 10SM BKN035 BKN085 16/13 A2993 RMK AO2 SLP136 T01610133

More Conditions Fewer Conditions

10-Day Weather Forecast

Almanac

Astronomy

Sep. 22, 2014 Rise Set
Actual Time 7:02 AM PDT 7:12 PM PDT
Civil Twilight 6:32 AM PDT 7:42 PM PDT
Nautical Twilight 5:57 AM PDT 8:17 PM PDT
Astronomical Twilight 5:21 AM PDT 8:53 PM PDT
Moon 5:33 AM PDT (9/22) 6:25 PM PDT (9/22)
Length of Visible Light 13h 09m
Length of Day
12h 10m
Tomorrow will be 3m 13s shorter.
Waning Crescent, 1% of the Moon is Illuminated
Today
Waning Crescent
Sep 24
New
Oct 1
First Quarter
Oct 8
Full
Oct 15
Last Quarter

Today's Extremes

State Highs State Lows

Community

WunderPhotos

Upload Photos

1,755,587 photos uploaded!

Nearby

Snow Depth

Station Depth Elevation
Greenpoint 1 in 3200 ft
Clackamas Lake 0 in 3400 ft
Fish Creek 0 in 7900 ft
Diamond Lake 0 in 5315 ft
New Crescent Lake 0 in 4800 ft

Earthquake Activity

City Distance Mag. Time & Date
No recent earthquake activity has been reported nearby.
Minimum magnitude displayed is 2.5.

Coastal Water Temperatures

Place Temperature
Astoria, OR 64.9 °F
Westport, WA 61.0 °F

Nearby Weather Stations